sensor_id;sensor_type;location;lat;lon;timestamp;temperature;humidity
40289;DHT22;28991;52.028;5.526;2023-05-20T00:00:43;20.70;45.80
40289;DHT22;28991;52.028;5.526;2023-05-20T00:03:12;20.70;45.80
40289;DHT22;28991;52.028;5.526;2023-05-20T00:05:37;20.70;45.80
40289;DHT22;28991;52.028;5.526;2023-05-20T00:08:03;20.70;45.80
40289;DHT22;28991;52.028;5.526;2023-05-20T00:10:32;20.70;45.80
40289;DHT22;28991;52.028;5.526;2023-05-20T00:12:57;20.70;45.80
40289;DHT22;28991;52.028;5.526;2023-05-20T00:15:23;20.70;45.90
40289;DHT22;28991;52.028;5.526;2023-05-20T00:17:48;20.70;45.90
40289;DHT22;28991;52.028;5.526;2023-05-20T00:20:14;20.70;45.90
40289;DHT22;28991;52.028;5.526;2023-05-20T00:22:42;20.60;45.80
40289;DHT22;28991;52.028;5.526;2023-05-20T00:25:08;20.70;45.90
40289;DHT22;28991;52.028;5.526;2023-05-20T00:27:33;20.70;45.90
40289;DHT22;28991;52.028;5.526;2023-05-20T00:29:59;20.70;45.90
40289;DHT22;28991;52.028;5.526;2023-05-20T00:32:25;20.70;45.90
40289;DHT22;28991;52.028;5.526;2023-05-20T00:34:57;21.50;46.30
40289;DHT22;28991;52.028;5.526;2023-05-20T00:37:23;20.80;46.00
40289;DHT22;28991;52.028;5.526;2023-05-20T00:39:49;20.70;45.90
40289;DHT22;28991;52.028;5.526;2023-05-20T00:42:22;20.70;45.90
40289;DHT22;28991;52.028;5.526;2023-05-20T00:44:48;20.60;46.00
40289;DHT22;28991;52.028;5.526;2023-05-20T00:47:15;20.90;46.10
40289;DHT22;28991;52.028;5.526;2023-05-20T00:49:42;20.60;46.00
40289;DHT22;28991;52.028;5.526;2023-05-20T00:52:08;20.70;46.00
40289;DHT22;28991;52.028;5.526;2023-05-20T00:54:34;20.60;46.00
40289;DHT22;28991;52.028;5.526;2023-05-20T00:56:59;20.60;46.00
40289;DHT22;28991;52.028;5.526;2023-05-20T00:59:27;20.70;46.00
40289;DHT22;28991;52.028;5.526;2023-05-20T01:01:52;20.60;46.00
40289;DHT22;28991;52.028;5.526;2023-05-20T01:04:19;20.70;46.10
40289;DHT22;28991;52.028;5.526;2023-05-20T01:06:45;20.90;46.10
40289;DHT22;28991;52.028;5.526;2023-05-20T01:09:12;20.70;46.10
40289;DHT22;28991;52.028;5.526;2023-05-20T01:11:43;20.50;46.00
40289;DHT22;28991;52.028;5.526;2023-05-20T01:14:12;20.70;46.20
40289;DHT22;28991;52.028;5.526;2023-05-20T01:16:38;20.70;46.10
40289;DHT22;28991;52.028;5.526;2023-05-20T01:19:17;20.70;46.10
40289;DHT22;28991;52.028;5.526;2023-05-20T01:21:48;20.60;46.10
40289;DHT22;28991;52.028;5.526;2023-05-20T01:24:14;20.60;46.10
40289;DHT22;28991;52.028;5.526;2023-05-20T01:26:40;20.60;46.10
40289;DHT22;28991;52.028;5.526;2023-05-20T01:29:05;20.60;46.10
40289;DHT22;28991;52.028;5.526;2023-05-20T01:31:32;20.60;46.10
40289;DHT22;28991;52.028;5.526;2023-05-20T01:34:03;20.60;46.20
40289;DHT22;28991;52.028;5.526;2023-05-20T01:36:30;20.60;46.20
40289;DHT22;28991;52.028;5.526;2023-05-20T01:38:57;20.60;46.10
40289;DHT22;28991;52.028;5.526;2023-05-20T01:41:23;20.70;46.20
40289;DHT22;28991;52.028;5.526;2023-05-20T01:43:50;20.60;46.20
40289;DHT22;28991;52.028;5.526;2023-05-20T01:46:16;20.60;46.20
40289;DHT22;28991;52.028;5.526;2023-05-20T01:48:42;20.60;46.20
40289;DHT22;28991;52.028;5.526;2023-05-20T01:51:07;20.80;46.30
40289;DHT22;28991;52.028;5.526;2023-05-20T01:53:33;20.60;46.20
40289;DHT22;28991;52.028;5.526;2023-05-20T01:55:58;20.60;46.20
40289;DHT22;28991;52.028;5.526;2023-05-20T01:58:24;20.60;46.20
40289;DHT22;28991;52.028;5.526;2023-05-20T02:00:50;20.60;46.20
40289;DHT22;28991;52.028;5.526;2023-05-20T02:03:15;20.50;46.20
40289;DHT22;28991;52.028;5.526;2023-05-20T02:05:41;20.60;46.30
40289;DHT22;28991;52.028;5.526;2023-05-20T02:08:06;20.60;46.30
40289;DHT22;28991;52.028;5.526;2023-05-20T02:10:32;20.50;46.20
40289;DHT22;28991;52.028;5.526;2023-05-20T02:12:58;20.60;46.30
40289;DHT22;28991;52.028;5.526;2023-05-20T02:15:23;20.60;46.30
40289;DHT22;28991;52.028;5.526;2023-05-20T02:17:49;20.50;46.20
40289;DHT22;28991;52.028;5.526;2023-05-20T02:20:14;20.60;46.30
40289;DHT22;28991;52.028;5.526;2023-05-20T02:22:40;20.60;46.30
40289;DHT22;28991;52.028;5.526;2023-05-20T02:25:06;20.60;46.30
40289;DHT22;28991;52.028;5.526;2023-05-20T02:27:32;20.60;46.40
40289;DHT22;28991;52.028;5.526;2023-05-20T02:29:59;20.60;46.40
40289;DHT22;28991;52.028;5.526;2023-05-20T02:32:25;20.60;46.40
40289;DHT22;28991;52.028;5.526;2023-05-20T02:34:53;20.70;46.40
40289;DHT22;28991;52.028;5.526;2023-05-20T02:37:19;20.60;46.40
40289;DHT22;28991;52.028;5.526;2023-05-20T02:39:45;20.60;46.40
40289;DHT22;28991;52.028;5.526;2023-05-20T02:42:11;20.60;46.40
40289;DHT22;28991;52.028;5.526;2023-05-20T02:44:36;20.60;46.50
40289;DHT22;28991;52.028;5.526;2023-05-20T02:47:02;20.60;46.40
40289;DHT22;28991;52.028;5.526;2023-05-20T02:49:27;20.60;46.50
40289;DHT22;28991;52.028;5.526;2023-05-20T02:51:53;20.50;46.40
40289;DHT22;28991;52.028;5.526;2023-05-20T02:54:18;20.50;46.40
40289;DHT22;28991;52.028;5.526;2023-05-20T02:56:44;20.50;46.40
40289;DHT22;28991;52.028;5.526;2023-05-20T02:59:09;20.50;46.40
40289;DHT22;28991;52.028;5.526;2023-05-20T03:01:35;20.50;46.40
40289;DHT22;28991;52.028;5.526;2023-05-20T03:04:03;20.50;46.40
40289;DHT22;28991;52.028;5.526;2023-05-20T03:06:29;20.50;46.50
40289;DHT22;28991;52.028;5.526;2023-05-20T03:08:56;20.50;46.50
40289;DHT22;28991;52.028;5.526;2023-05-20T03:11:22;20.50;46.50
40289;DHT22;28991;52.028;5.526;2023-05-20T03:13:48;20.50;46.50
40289;DHT22;28991;52.028;5.526;2023-05-20T03:16:13;20.50;46.50
40289;DHT22;28991;52.028;5.526;2023-05-20T03:18:39;20.50;46.50
40289;DHT22;28991;52.028;5.526;2023-05-20T03:21:05;20.50;46.50
40289;DHT22;28991;52.028;5.526;2023-05-20T03:23:30;20.50;46.60
40289;DHT22;28991;52.028;5.526;2023-05-20T03:25:56;20.50;46.60
40289;DHT22;28991;52.028;5.526;2023-05-20T03:28:21;20.50;46.60
40289;DHT22;28991;52.028;5.526;2023-05-20T03:30:47;20.50;46.60
40289;DHT22;28991;52.028;5.526;2023-05-20T03:33:12;20.50;46.60
40289;DHT22;28991;52.028;5.526;2023-05-20T03:35:40;20.50;46.60
40289;DHT22;28991;52.028;5.526;2023-05-20T03:38:05;20.50;46.60
40289;DHT22;28991;52.028;5.526;2023-05-20T03:40:31;20.50;46.60
40289;DHT22;28991;52.028;5.526;2023-05-20T03:42:56;20.50;46.60
40289;DHT22;28991;52.028;5.526;2023-05-20T03:45:22;20.50;46.60
40289;DHT22;28991;52.028;5.526;2023-05-20T03:47:47;20.50;46.70
40289;DHT22;28991;52.028;5.526;2023-05-20T03:50:13;20.50;46.60
40289;DHT22;28991;52.028;5.526;2023-05-20T03:52:39;20.50;46.60
40289;DHT22;28991;52.028;5.526;2023-05-20T03:55:05;20.50;46.60
40289;DHT22;28991;52.028;5.526;2023-05-20T03:57:31;20.50;46.60
40289;DHT22;28991;52.028;5.526;2023-05-20T03:59:57;20.50;46.60
40289;DHT22;28991;52.028;5.526;2023-05-20T04:02:22;20.50;46.50
40289;DHT22;28991;52.028;5.526;2023-05-20T04:04:48;20.50;46.50
40289;DHT22;28991;52.028;5.526;2023-05-20T04:07:17;20.90;46.70
40289;DHT22;28991;52.028;5.526;2023-05-20T04:09:43;20.60;46.50
40289;DHT22;28991;52.028;5.526;2023-05-20T04:12:08;20.50;46.50
40289;DHT22;28991;52.028;5.526;2023-05-20T04:14:34;20.60;46.50
40289;DHT22;28991;52.028;5.526;2023-05-20T04:17:02;20.60;46.50
40289;DHT22;28991;52.028;5.526;2023-05-20T04:19:28;20.70;46.40
40289;DHT22;28991;52.028;5.526;2023-05-20T04:21:55;20.60;46.20
40289;DHT22;28991;52.028;5.526;2023-05-20T04:24:20;20.70;46.10
40289;DHT22;28991;52.028;5.526;2023-05-20T04:26:52;20.80;46.00
40289;DHT22;28991;52.028;5.526;2023-05-20T04:29:18;21.00;45.90
40289;DHT22;28991;52.028;5.526;2023-05-20T04:31:46;21.10;45.80
40289;DHT22;28991;52.028;5.526;2023-05-20T04:34:13;21.10;45.50
40289;DHT22;28991;52.028;5.526;2023-05-20T04:36:38;21.30;45.30
40289;DHT22;28991;52.028;5.526;2023-05-20T04:39:04;21.40;45.20
40289;DHT22;28991;52.028;5.526;2023-05-20T04:41:32;21.50;45.00
40289;DHT22;28991;52.028;5.526;2023-05-20T04:43:57;21.70;44.80
40289;DHT22;28991;52.028;5.526;2023-05-20T04:46:25;21.90;44.70
40289;DHT22;28991;52.028;5.526;2023-05-20T04:48:51;22.00;44.40
40289;DHT22;28991;52.028;5.526;2023-05-20T04:51:16;22.10;44.10
40289;DHT22;28991;52.028;5.526;2023-05-20T04:53:42;22.30;43.90
40289;DHT22;28991;52.028;5.526;2023-05-20T04:56:10;22.40;43.60
40289;DHT22;28991;52.028;5.526;2023-05-20T04:58:35;22.60;43.50
40289;DHT22;28991;52.028;5.526;2023-05-20T05:01:01;22.70;43.20
40289;DHT22;28991;52.028;5.526;2023-05-20T05:03:27;22.90;43.00
40289;DHT22;28991;52.028;5.526;2023-05-20T05:05:58;23.00;42.80
40289;DHT22;28991;52.028;5.526;2023-05-20T05:08:24;23.20;42.60
40289;DHT22;28991;52.028;5.526;2023-05-20T05:10:51;23.30;42.30
40289;DHT22;28991;52.028;5.526;2023-05-20T05:13:16;23.40;42.00
40289;DHT22;28991;52.028;5.526;2023-05-20T05:15:42;23.60;41.80
40289;DHT22;28991;52.028;5.526;2023-05-20T05:18:07;23.70;41.60
40289;DHT22;28991;52.028;5.526;2023-05-20T05:20:33;23.80;41.30
40289;DHT22;28991;52.028;5.526;2023-05-20T05:22:59;24.00;41.10
40289;DHT22;28991;52.028;5.526;2023-05-20T05:25:25;24.10;40.70
40289;DHT22;28991;52.028;5.526;2023-05-20T05:27:50;24.20;40.40
40289;DHT22;28991;52.028;5.526;2023-05-20T05:30:16;24.40;40.20
40289;DHT22;28991;52.028;5.526;2023-05-20T05:32:42;24.50;39.90
40289;DHT22;28991;52.028;5.526;2023-05-20T05:35:08;24.90;39.80
40289;DHT22;28991;52.028;5.526;2023-05-20T05:37:33;24.80;39.40
40289;DHT22;28991;52.028;5.526;2023-05-20T05:39:59;24.90;39.10
40289;DHT22;28991;52.028;5.526;2023-05-20T05:42:24;25.00;38.80
40289;DHT22;28991;52.028;5.526;2023-05-20T05:44:50;25.30;38.70
40289;DHT22;28991;52.028;5.526;2023-05-20T05:47:16;25.40;38.40
40289;DHT22;28991;52.028;5.526;2023-05-20T05:49:42;25.50;38.20
40289;DHT22;28991;52.028;5.526;2023-05-20T05:52:07;25.60;37.90
40289;DHT22;28991;52.028;5.526;2023-05-20T05:54:33;25.80;37.80
40289;DHT22;28991;52.028;5.526;2023-05-20T05:56:58;25.90;37.50
40289;DHT22;28991;52.028;5.526;2023-05-20T05:59:24;26.10;37.40
40289;DHT22;28991;52.028;5.526;2023-05-20T06:01:49;26.10;37.10
40289;DHT22;28991;52.028;5.526;2023-05-20T06:04:15;26.30;37.00
40289;DHT22;28991;52.028;5.526;2023-05-20T06:06:41;26.40;36.80
40289;DHT22;28991;52.028;5.526;2023-05-20T06:09:06;26.50;36.60
40289;DHT22;28991;52.028;5.526;2023-05-20T06:11:32;26.60;36.50
40289;DHT22;28991;52.028;5.526;2023-05-20T06:13:57;26.70;36.40
40289;DHT22;28991;52.028;5.526;2023-05-20T06:16:24;27.50;36.70
40289;DHT22;28991;52.028;5.526;2023-05-20T06:18:49;26.90;36.20
40289;DHT22;28991;52.028;5.526;2023-05-20T06:21:15;26.90;36.00
40289;DHT22;28991;52.028;5.526;2023-05-20T06:23:41;27.00;36.00
40289;DHT22;28991;52.028;5.526;2023-05-20T06:26:06;27.00;35.90
40289;DHT22;28991;52.028;5.526;2023-05-20T06:28:32;27.10;35.90
40289;DHT22;28991;52.028;5.526;2023-05-20T06:30:58;27.20;35.90
40289;DHT22;28991;52.028;5.526;2023-05-20T06:33:25;27.30;35.90
40289;DHT22;28991;52.028;5.526;2023-05-20T06:35:53;27.20;35.90
40289;DHT22;28991;52.028;5.526;2023-05-20T06:38:20;27.20;35.90
40289;DHT22;28991;52.028;5.526;2023-05-20T06:40:46;27.20;35.90
40289;DHT22;28991;52.028;5.526;2023-05-20T06:43:13;27.20;35.90
40289;DHT22;28991;52.028;5.526;2023-05-20T06:45:38;27.20;36.00
40289;DHT22;28991;52.028;5.526;2023-05-20T06:48:04;27.20;36.00
40289;DHT22;28991;52.028;5.526;2023-05-20T06:50:30;27.30;36.00
40289;DHT22;28991;52.028;5.526;2023-05-20T06:52:55;27.20;36.00
40289;DHT22;28991;52.028;5.526;2023-05-20T06:55:21;27.20;36.00
40289;DHT22;28991;52.028;5.526;2023-05-20T06:57:46;27.10;36.00
40289;DHT22;28991;52.028;5.526;2023-05-20T07:00:12;27.10;36.00
40289;DHT22;28991;52.028;5.526;2023-05-20T07:02:38;27.10;36.00
40289;DHT22;28991;52.028;5.526;2023-05-20T07:05:04;27.10;36.00
40289;DHT22;28991;52.028;5.526;2023-05-20T07:07:30;27.00;36.00
40289;DHT22;28991;52.028;5.526;2023-05-20T07:09:56;27.00;36.00
40289;DHT22;28991;52.028;5.526;2023-05-20T07:12:21;26.90;36.00
40289;DHT22;28991;52.028;5.526;2023-05-20T07:14:47;26.90;36.10
40289;DHT22;28991;52.028;5.526;2023-05-20T07:17:13;26.80;36.10
40289;DHT22;28991;52.028;5.526;2023-05-20T07:19:38;26.80;36.20
40289;DHT22;28991;52.028;5.526;2023-05-20T07:22:04;26.90;36.30
40289;DHT22;28991;52.028;5.526;2023-05-20T07:24:29;26.70;36.30
40289;DHT22;28991;52.028;5.526;2023-05-20T07:26:55;26.60;36.30
40289;DHT22;28991;52.028;5.526;2023-05-20T07:29:21;26.50;36.30
40289;DHT22;28991;52.028;5.526;2023-05-20T07:31:46;26.50;36.40
40289;DHT22;28991;52.028;5.526;2023-05-20T07:34:12;26.50;36.50
40289;DHT22;28991;52.028;5.526;2023-05-20T07:36:37;26.40;36.60
40289;DHT22;28991;52.028;5.526;2023-05-20T07:39:03;26.40;36.70
40289;DHT22;28991;52.028;5.526;2023-05-20T07:41:28;26.30;36.70
40289;DHT22;28991;52.028;5.526;2023-05-20T07:43:54;26.30;36.80
40289;DHT22;28991;52.028;5.526;2023-05-20T07:46:20;26.50;36.90
40289;DHT22;28991;52.028;5.526;2023-05-20T07:48:45;26.20;36.80
40289;DHT22;28991;52.028;5.526;2023-05-20T07:51:11;26.20;36.80
40289;DHT22;28991;52.028;5.526;2023-05-20T07:53:39;25.90;36.70
40289;DHT22;28991;52.028;5.526;2023-05-20T07:56:05;26.10;36.90
40289;DHT22;28991;52.028;5.526;2023-05-20T07:58:31;26.10;36.90
40289;DHT22;28991;52.028;5.526;2023-05-20T08:00:56;26.10;36.90
40289;DHT22;28991;52.028;5.526;2023-05-20T08:03:22;26.10;37.00
40289;DHT22;28991;52.028;5.526;2023-05-20T08:05:48;26.00;37.00
40289;DHT22;28991;52.028;5.526;2023-05-20T08:08:14;26.00;37.10
40289;DHT22;28991;52.028;5.526;2023-05-20T08:10:40;26.00;37.20
40289;DHT22;28991;52.028;5.526;2023-05-20T08:13:05;25.90;37.20
40289;DHT22;28991;52.028;5.526;2023-05-20T08:15:31;25.90;37.30
40289;DHT22;28991;52.028;5.526;2023-05-20T08:17:57;25.80;37.30
40289;DHT22;28991;52.028;5.526;2023-05-20T08:20:22;25.70;37.30
40289;DHT22;28991;52.028;5.526;2023-05-20T08:22:50;25.70;37.40
40289;DHT22;28991;52.028;5.526;2023-05-20T08:25:16;25.70;37.50
40289;DHT22;28991;52.028;5.526;2023-05-20T08:27:42;25.60;37.50
40289;DHT22;28991;52.028;5.526;2023-05-20T08:30:07;25.60;37.60
40289;DHT22;28991;52.028;5.526;2023-05-20T08:32:34;25.50;37.60
40289;DHT22;28991;52.028;5.526;2023-05-20T08:35:01;25.40;37.60
40289;DHT22;28991;52.028;5.526;2023-05-20T08:37:27;25.40;37.80
40289;DHT22;28991;52.028;5.526;2023-05-20T08:39:53;25.40;37.80
40289;DHT22;28991;52.028;5.526;2023-05-20T08:42:21;25.30;37.80
40289;DHT22;28991;52.028;5.526;2023-05-20T08:44:47;25.20;37.90
40289;DHT22;28991;52.028;5.526;2023-05-20T08:47:13;25.20;38.00
40289;DHT22;28991;52.028;5.526;2023-05-20T08:49:39;25.10;38.00
40289;DHT22;28991;52.028;5.526;2023-05-20T08:52:05;25.10;38.10
40289;DHT22;28991;52.028;5.526;2023-05-20T08:54:44;25.00;38.10
40289;DHT22;28991;52.028;5.526;2023-05-20T08:57:12;25.00;38.20
40289;DHT22;28991;52.028;5.526;2023-05-20T08:59:41;24.90;38.20
40289;DHT22;28991;52.028;5.526;2023-05-20T09:02:08;24.90;38.30
40289;DHT22;28991;52.028;5.526;2023-05-20T09:04:34;24.80;38.40
40289;DHT22;28991;52.028;5.526;2023-05-20T09:06:59;24.70;38.40
40289;DHT22;28991;52.028;5.526;2023-05-20T09:09:25;24.70;38.50
40289;DHT22;28991;52.028;5.526;2023-05-20T09:11:50;24.70;38.70
40289;DHT22;28991;52.028;5.526;2023-05-20T09:14:16;24.60;38.70
40289;DHT22;28991;52.028;5.526;2023-05-20T09:16:41;24.50;38.70
40289;DHT22;28991;52.028;5.526;2023-05-20T09:19:07;24.40;38.80
40289;DHT22;28991;52.028;5.526;2023-05-20T09:21:34;24.40;38.90
40289;DHT22;28991;52.028;5.526;2023-05-20T09:24:03;24.30;39.10
40289;DHT22;28991;52.028;5.526;2023-05-20T09:26:28;24.30;39.70
40289;DHT22;28991;52.028;5.526;2023-05-20T09:28:57;24.20;39.20
40289;DHT22;28991;52.028;5.526;2023-05-20T09:31:30;24.20;39.30
40289;DHT22;28991;52.028;5.526;2023-05-20T09:33:59;24.20;39.40
40289;DHT22;28991;52.028;5.526;2023-05-20T09:36:28;24.10;39.40
40289;DHT22;28991;52.028;5.526;2023-05-20T09:38:57;24.10;39.50
40289;DHT22;28991;52.028;5.526;2023-05-20T09:41:31;24.10;39.50
40289;DHT22;28991;52.028;5.526;2023-05-20T09:43:58;24.00;39.60
40289;DHT22;28991;52.028;5.526;2023-05-20T09:46:25;24.00;39.70
40289;DHT22;28991;52.028;5.526;2023-05-20T09:48:52;23.90;39.80
40289;DHT22;28991;52.028;5.526;2023-05-20T09:51:17;23.70;40.00
40289;DHT22;28991;52.028;5.526;2023-05-20T09:53:43;23.60;40.10
40289;DHT22;28991;52.028;5.526;2023-05-20T09:56:09;23.50;40.30
40289;DHT22;28991;52.028;5.526;2023-05-20T09:58:35;23.40;40.40
40289;DHT22;28991;52.028;5.526;2023-05-20T10:01:02;23.30;40.60
40289;DHT22;28991;52.028;5.526;2023-05-20T10:03:27;23.20;40.80
40289;DHT22;28991;52.028;5.526;2023-05-20T10:17:28;22.60;41.50
40289;DHT22;28991;52.028;5.526;2023-05-20T10:19:59;22.90;41.70
40289;DHT22;28991;52.028;5.526;2023-05-20T10:22:29;22.70;41.70
40289;DHT22;28991;52.028;5.526;2023-05-20T10:24:59;22.60;41.80
40289;DHT22;28991;52.028;5.526;2023-05-20T10:27:28;22.60;41.80
40289;DHT22;28991;52.028;5.526;2023-05-20T10:29:55;22.60;41.80
40289;DHT22;28991;52.028;5.526;2023-05-20T10:32:24;22.70;41.80
40289;DHT22;28991;52.028;5.526;2023-05-20T10:34:50;22.80;41.80
40289;DHT22;28991;52.028;5.526;2023-05-20T10:37:33;22.70;41.70
40289;DHT22;28991;52.028;5.526;2023-05-20T10:40:14;22.80;41.60
40289;DHT22;28991;52.028;5.526;2023-05-20T10:42:42;22.80;41.60
40289;DHT22;28991;52.028;5.526;2023-05-20T10:45:08;22.90;41.60
40289;DHT22;28991;52.028;5.526;2023-05-20T10:47:34;22.80;41.50
40289;DHT22;28991;52.028;5.526;2023-05-20T10:50:00;22.80;41.50
40289;DHT22;28991;52.028;5.526;2023-05-20T10:52:27;22.80;41.50
40289;DHT22;28991;52.028;5.526;2023-05-20T10:54:56;22.80;41.60
40289;DHT22;28991;52.028;5.526;2023-05-20T10:57:24;22.70;41.70
40289;DHT22;28991;52.028;5.526;2023-05-20T10:59:50;22.70;41.80
40289;DHT22;28991;52.028;5.526;2023-05-20T11:02:18;22.60;41.80
40289;DHT22;28991;52.028;5.526;2023-05-20T11:04:44;22.60;42.00
40289;DHT22;28991;52.028;5.526;2023-05-20T11:07:10;22.50;42.00
40289;DHT22;28991;52.028;5.526;2023-05-20T11:09:36;22.50;42.10
40289;DHT22;28991;52.028;5.526;2023-05-20T11:12:02;22.40;42.10
40289;DHT22;28991;52.028;5.526;2023-05-20T11:14:28;22.40;42.20
40289;DHT22;28991;52.028;5.526;2023-05-20T11:16:57;22.40;42.30
40289;DHT22;28991;52.028;5.526;2023-05-20T11:19:24;22.30;42.30
40289;DHT22;28991;52.028;5.526;2023-05-20T11:21:50;22.40;42.40
40289;DHT22;28991;52.028;5.526;2023-05-20T11:24:27;22.20;42.40
40289;DHT22;28991;52.028;5.526;2023-05-20T11:26:54;22.20;43.10
40289;DHT22;28991;52.028;5.526;2023-05-20T11:29:20;22.20;42.50
40289;DHT22;28991;52.028;5.526;2023-05-20T11:31:50;22.20;42.60
40289;DHT22;28991;52.028;5.526;2023-05-20T11:34:22;22.20;42.60
40289;DHT22;28991;52.028;5.526;2023-05-20T11:36:54;22.20;42.70
40289;DHT22;28991;52.028;5.526;2023-05-20T11:39:21;22.20;42.70
40289;DHT22;28991;52.028;5.526;2023-05-20T11:41:46;22.10;42.70
40289;DHT22;28991;52.028;5.526;2023-05-20T11:44:12;22.20;42.70
40289;DHT22;28991;52.028;5.526;2023-05-20T11:46:42;22.50;43.00
40289;DHT22;28991;52.028;5.526;2023-05-20T11:49:08;22.10;42.80
40289;DHT22;28991;52.028;5.526;2023-05-20T11:51:34;22.10;42.80
40289;DHT22;28991;52.028;5.526;2023-05-20T11:54:03;21.90;42.70
40289;DHT22;28991;52.028;5.526;2023-05-20T11:56:29;22.00;42.80
40289;DHT22;28991;52.028;5.526;2023-05-20T11:59:00;22.20;43.00
40289;DHT22;28991;52.028;5.526;2023-05-20T12:01:28;22.00;43.00
40289;DHT22;28991;52.028;5.526;2023-05-20T12:03:53;22.00;42.90
40289;DHT22;28991;52.028;5.526;2023-05-20T12:06:19;22.00;42.90
40289;DHT22;28991;52.028;5.526;2023-05-20T12:08:45;22.00;42.90
40289;DHT22;28991;52.028;5.526;2023-05-20T12:11:11;22.00;43.00
40289;DHT22;28991;52.028;5.526;2023-05-20T12:13:39;22.00;43.00
40289;DHT22;28991;52.028;5.526;2023-05-20T12:16:05;22.00;43.10
40289;DHT22;28991;52.028;5.526;2023-05-20T12:18:31;22.00;43.10
40289;DHT22;28991;52.028;5.526;2023-05-20T12:20:58;22.20;43.20
40289;DHT22;28991;52.028;5.526;2023-05-20T12:23:23;22.00;43.10
40289;DHT22;28991;52.028;5.526;2023-05-20T12:25:49;22.00;43.10
40289;DHT22;28991;52.028;5.526;2023-05-20T12:28:15;21.90;43.20
40289;DHT22;28991;52.028;5.526;2023-05-20T12:30:43;21.90;43.10
40289;DHT22;28991;52.028;5.526;2023-05-20T12:33:09;21.90;43.10
40289;DHT22;28991;52.028;5.526;2023-05-20T12:35:43;21.90;43.20
40289;DHT22;28991;52.028;5.526;2023-05-20T12:38:10;21.90;43.30
40289;DHT22;28991;52.028;5.526;2023-05-20T12:40:36;21.90;43.20
40289;DHT22;28991;52.028;5.526;2023-05-20T12:43:02;21.90;43.30
40289;DHT22;28991;52.028;5.526;2023-05-20T12:45:28;22.80;43.70
40289;DHT22;28991;52.028;5.526;2023-05-20T12:47:55;21.90;43.30
40289;DHT22;28991;52.028;5.526;2023-05-20T12:50:21;21.90;43.30
40289;DHT22;28991;52.028;5.526;2023-05-20T12:52:47;22.10;43.50
40289;DHT22;28991;52.028;5.526;2023-05-20T12:55:13;21.90;43.30
40289;DHT22;28991;52.028;5.526;2023-05-20T12:57:39;21.80;43.30
40289;DHT22;28991;52.028;5.526;2023-05-20T13:00:06;21.90;43.40
40289;DHT22;28991;52.028;5.526;2023-05-20T13:02:32;21.90;43.40
40289;DHT22;28991;52.028;5.526;2023-05-20T13:04:58;22.00;43.50
40289;DHT22;28991;52.028;5.526;2023-05-20T13:07:24;21.80;43.40
40289;DHT22;28991;52.028;5.526;2023-05-20T13:09:51;21.90;43.40
40289;DHT22;28991;52.028;5.526;2023-05-20T13:12:17;21.90;43.50
40289;DHT22;28991;52.028;5.526;2023-05-20T13:14:42;21.90;43.50
40289;DHT22;28991;52.028;5.526;2023-05-20T13:17:08;22.00;43.50
40289;DHT22;28991;52.028;5.526;2023-05-20T13:19:33;22.00;43.30
40289;DHT22;28991;52.028;5.526;2023-05-20T13:21:59;22.10;43.30
40289;DHT22;28991;52.028;5.526;2023-05-20T13:24:25;22.10;43.10
40289;DHT22;28991;52.028;5.526;2023-05-20T13:26:50;22.10;43.10
40289;DHT22;28991;52.028;5.526;2023-05-20T13:29:16;22.10;43.10
40289;DHT22;28991;52.028;5.526;2023-05-20T13:31:42;22.10;43.20
40289;DHT22;28991;52.028;5.526;2023-05-20T13:34:08;22.10;43.20
40289;DHT22;28991;52.028;5.526;2023-05-20T13:36:36;22.00;43.20
40289;DHT22;28991;52.028;5.526;2023-05-20T13:39:02;22.00;43.30
40289;DHT22;28991;52.028;5.526;2023-05-20T13:41:27;22.00;43.30
40289;DHT22;28991;52.028;5.526;2023-05-20T13:43:54;22.00;43.30
40289;DHT22;28991;52.028;5.526;2023-05-20T13:46:20;21.90;43.30
40289;DHT22;28991;52.028;5.526;2023-05-20T13:48:45;21.90;43.40
40289;DHT22;28991;52.028;5.526;2023-05-20T13:51:11;21.90;43.40
40289;DHT22;28991;52.028;5.526;2023-05-20T13:53:37;21.90;43.40
40289;DHT22;28991;52.028;5.526;2023-05-20T13:56:02;21.90;43.40
40289;DHT22;28991;52.028;5.526;2023-05-20T13:58:29;21.90;43.50
40289;DHT22;28991;52.028;5.526;2023-05-20T14:00:55;21.90;43.50
40289;DHT22;28991;52.028;5.526;2023-05-20T14:03:21;21.80;43.50
40289;DHT22;28991;52.028;5.526;2023-05-20T14:05:47;21.90;43.60
40289;DHT22;28991;52.028;5.526;2023-05-20T14:08:12;21.80;43.60
40289;DHT22;28991;52.028;5.526;2023-05-20T14:10:38;21.90;43.60
40289;DHT22;28991;52.028;5.526;2023-05-20T14:13:04;21.90;43.50
40289;DHT22;28991;52.028;5.526;2023-05-20T14:15:30;22.00;43.50
40289;DHT22;28991;52.028;5.526;2023-05-20T14:17:58;22.00;43.40
40289;DHT22;28991;52.028;5.526;2023-05-20T14:20:24;22.20;43.40
40289;DHT22;28991;52.028;5.526;2023-05-20T14:22:53;22.20;43.30
40289;DHT22;28991;52.028;5.526;2023-05-20T14:25:19;22.20;43.30
40289;DHT22;28991;52.028;5.526;2023-05-20T14:27:45;22.20;43.20
40289;DHT22;28991;52.028;5.526;2023-05-20T14:30:10;22.30;43.20
40289;DHT22;28991;52.028;5.526;2023-05-20T14:32:36;22.30;43.20
40289;DHT22;28991;52.028;5.526;2023-05-20T14:35:03;22.20;43.10
40289;DHT22;28991;52.028;5.526;2023-05-20T14:37:29;22.30;43.10
40289;DHT22;28991;52.028;5.526;2023-05-20T14:39:55;22.30;43.10
40289;DHT22;28991;52.028;5.526;2023-05-20T14:42:20;22.30;43.10
40289;DHT22;28991;52.028;5.526;2023-05-20T14:44:46;22.30;43.10
40289;DHT22;28991;52.028;5.526;2023-05-20T14:47:12;22.30;43.10
40289;DHT22;28991;52.028;5.526;2023-05-20T14:49:41;22.30;43.10
40289;DHT22;28991;52.028;5.526;2023-05-20T14:52:08;22.30;43.20
40289;DHT22;28991;52.028;5.526;2023-05-20T14:54:34;22.30;43.20
40289;DHT22;28991;52.028;5.526;2023-05-20T14:57:00;22.30;43.20
40289;DHT22;28991;52.028;5.526;2023-05-20T14:59:25;22.20;43.10
40289;DHT22;28991;52.028;5.526;2023-05-20T15:01:51;22.30;43.20
40289;DHT22;28991;52.028;5.526;2023-05-20T15:04:16;22.20;43.20
40289;DHT22;28991;52.028;5.526;2023-05-20T15:06:42;22.20;43.20
40289;DHT22;28991;52.028;5.526;2023-05-20T15:09:07;22.30;43.20
40289;DHT22;28991;52.028;5.526;2023-05-20T15:11:33;22.30;43.20
40289;DHT22;28991;52.028;5.526;2023-05-20T15:13:58;22.30;43.20
40289;DHT22;28991;52.028;5.526;2023-05-20T15:16:24;22.40;43.30
40289;DHT22;28991;52.028;5.526;2023-05-20T15:18:51;22.20;43.20
40289;DHT22;28991;52.028;5.526;2023-05-20T15:21:16;22.30;43.30
40289;DHT22;28991;52.028;5.526;2023-05-20T15:23:42;22.30;43.30
40289;DHT22;28991;52.028;5.526;2023-05-20T15:26:08;22.30;43.30
40289;DHT22;28991;52.028;5.526;2023-05-20T15:28:36;22.30;43.30
40289;DHT22;28991;52.028;5.526;2023-05-20T15:31:02;22.20;43.20
40289;DHT22;28991;52.028;5.526;2023-05-20T15:33:27;22.30;43.30
40289;DHT22;28991;52.028;5.526;2023-05-20T15:35:53;22.20;43.80